Time;durP1;ratioP1;P1;durP2;ratioP2;P2;SDS_P1;SDS_P2;PMS_P1;PMS_P2;Temp;Humidity;BMP_temperature;BMP_pressure;BME280_temperature;BME280_humidity;BME280_pressure;Samples;Min_cycle;Max_cycle;Signal;HPM_P1;HPM_P2
2021/03/29 00:00:18;;;;;;;11.88;2.88;;;9.10;88.80;;;;;;5053561;28;20485;-69
2021/03/29 00:02:45;;;;;;;12.35;3.42;;;9.20;88.40;;;;;;5035959;28;20037;-69
2021/03/29 00:05:12;;;;;;;15.77;3.30;;;9.10;88.40;;;;;;5053381;28;20064;-69
2021/03/29 00:07:39;;;;;;;10.15;3.15;;;9.10;88.50;;;;;;5053295;28;20091;-69
2021/03/29 00:10:08;;;;;;;6.00;2.60;;;9.10;88.50;;;;;;5053562;28;20040;-69
2021/03/29 00:12:36;;;;;;;9.77;2.63;;;9.10;87.80;;;;;;5053385;28;20045;-69
2021/03/29 00:15:04;;;;;;;7.85;2.72;;;9.10;88.40;;;;;;5053068;28;20063;-69
2021/03/29 00:17:30;;;;;;;8.05;2.67;;;9.10;88.30;;;;;;5053041;28;20059;-69
2021/03/29 00:19:57;;;;;;;10.75;2.83;;;9.10;88.10;;;;;;5053657;28;20491;-69
2021/03/29 00:22:22;;;;;;;9.30;3.13;;;9.10;88.20;;;;;;5053412;28;20064;-69
2021/03/29 00:24:49;;;;;;;9.15;2.75;;;9.10;88.00;;;;;;5052821;28;20083;-69
2021/03/29 00:27:15;;;;;;;8.38;2.85;;;9.10;87.70;;;;;;5053369;28;20064;-69
2021/03/29 00:29:41;;;;;;;8.38;2.65;;;9.10;88.10;;;;;;5053299;28;20481;-69
2021/03/29 00:32:08;;;;;;;11.25;4.28;;;9.00;88.00;;;;;;5053719;28;20120;-69
2021/03/29 00:34:35;;;;;;;10.00;3.42;;;9.00;88.10;;;;;;5052967;28;20118;-69
2021/03/29 00:37:02;;;;;;;7.97;2.75;;;9.00;88.40;;;;;;5052985;28;20485;-69
2021/03/29 00:39:38;;;;;;;6.93;3.28;;;9.00;88.50;;;;;;5052345;28;20041;-69
2021/03/29 00:42:05;;;;;;;8.73;3.10;;;9.00;88.50;;;;;;5053468;28;20055;-69
2021/03/29 00:44:32;;;;;;;10.88;3.00;;;9.10;88.30;;;;;;5035004;28;20048;-69
2021/03/29 00:46:58;;;;;;;9.25;2.92;;;9.10;88.30;;;;;;5056136;28;20499;-69
2021/03/29 00:49:24;;;;;;;7.40;3.17;;;9.10;88.00;;;;;;5057186;28;20119;-69
2021/03/29 00:51:51;;;;;;;9.90;3.33;;;9.10;88.40;;;;;;5057300;28;20069;-69
2021/03/29 00:54:17;;;;;;;6.80;2.80;;;9.30;87.70;;;;;;5039416;28;20029;-69
2021/03/29 00:56:44;;;;;;;11.75;3.90;;;9.30;87.80;;;;;;5039037;28;20485;-69
2021/03/29 00:59:10;;;;;;;12.65;3.10;;;9.30;87.70;;;;;;5057138;28;20086;-69
2021/03/29 01:01:40;;;;;;;9.73;2.85;;;9.30;87.80;;;;;;5056875;28;20072;-69
2021/03/29 01:04:07;;;;;;;14.50;2.83;;;9.30;88.00;;;;;;5057116;28;20131;-69
2021/03/29 01:06:40;;;;;;;10.38;2.75;;;9.30;87.60;;;;;;5056607;28;20102;-69
2021/03/29 01:09:15;;;;;;;10.95;3.08;;;9.30;87.60;;;;;;5057146;28;20427;-69
2021/03/29 01:11:43;;;;;;;11.18;2.83;;;9.30;87.60;;;;;;5056890;28;20033;-69
2021/03/29 01:14:16;;;;;;;13.90;2.80;;;9.30;87.40;;;;;;5056792;28;20124;-69
2021/03/29 01:17:01;;;;;;;11.20;2.95;;;9.30;87.40;;;;;;5056600;28;20048;-69
2021/03/29 01:19:46;;;;;;;7.82;3.38;;;9.40;87.00;;;;;;5056623;28;20124;-69
2021/03/29 01:22:16;;;;;;;9.93;2.70;;;9.40;86.70;;;;;;5056728;28;20040;-69
2021/03/29 01:25:01;;;;;;;9.25;2.92;;;9.40;86.70;;;;;;5056238;28;20043;-69
2021/03/29 01:27:32;;;;;;;9.88;3.88;;;9.30;87.20;;;;;;5038862;28;20056;-69
2021/03/29 01:29:59;;;;;;;10.80;2.67;;;9.40;86.90;;;;;;5038802;28;20051;-69
2021/03/29 01:32:28;;;;;;;13.15;3.35;;;9.40;86.90;;;;;;5056316;28;20041;-69
2021/03/29 01:34:56;;;;;;;5.55;2.70;;;9.50;86.30;;;;;;5056031;28;20044;-69
2021/03/29 01:37:24;;;;;;;8.60;2.83;;;9.50;86.40;;;;;;5056192;28;20405;-69
2021/03/29 01:39:52;;;;;;;7.43;2.35;;;9.50;86.30;;;;;;5056178;28;20037;-69
2021/03/29 01:42:18;;;;;;;7.13;2.70;;;9.60;85.80;;;;;;5056594;28;20041;-69
2021/03/29 01:44:45;;;;;;;10.65;3.65;;;9.60;86.20;;;;;;5056174;28;20041;-69
2021/03/29 01:47:12;;;;;;;12.63;2.90;;;9.70;85.70;;;;;;5055925;28;20120;-69
2021/03/29 01:49:38;;;;;;;9.10;2.67;;;9.70;85.60;;;;;;5056369;28;20481;-69
2021/03/29 01:52:06;;;;;;;9.45;2.55;;;9.60;85.70;;;;;;5055939;28;20049;-69
2021/03/29 01:54:33;;;;;;;10.80;3.50;;;9.70;85.00;;;;;;5055535;28;20044;-69
2021/03/29 01:57:07;;;;;;;8.18;2.70;;;9.70;84.80;;;;;;5054470;28;20041;-69
2021/03/29 01:59:33;;;;;;;;;;;9.70;85.10;;;;;;5056629;28;20444;-69
2021/03/29 02:02:00;;;;;;;8.63;2.80;;;9.60;85.50;;;;;;5055684;28;19916;-69
2021/03/29 02:04:28;;;;;;;6.95;3.03;;;9.60;85.90;;;;;;5055422;28;20091;-70
2021/03/29 02:06:54;;;;;;;8.27;2.97;;;9.60;85.60;;;;;;5038025;28;20041;-69
2021/03/29 02:09:20;;;;;;;7.85;2.92;;;9.70;85.60;;;;;;5055940;28;20045;-69
2021/03/29 02:11:47;;;;;;;10.80;2.97;;;9.70;85.50;;;;;;5055634;28;20091;-69
2021/03/29 02:14:14;;;;;;;7.43;2.80;;;9.70;85.80;;;;;;5055572;28;20037;-69
2021/03/29 02:16:41;;;;;;;7.70;3.47;;;9.70;85.40;;;;;;5055255;28;20465;-69
2021/03/29 02:19:09;;;;;;;8.60;3.45;;;9.70;85.30;;;;;;5055468;28;20044;-69
2021/03/29 02:21:41;;;;;;;11.35;3.25;;;9.70;85.60;;;;;;5055733;28;20063;-69
2021/03/29 02:24:09;;;;;;;9.77;3.15;;;9.70;85.10;;;;;;5055701;28;20041;-69
2021/03/29 02:26:39;;;;;;;7.07;3.13;;;9.60;85.70;;;;;;5054911;28;20048;-69
2021/03/29 02:29:05;;;;;;;9.85;3.28;;;9.70;85.50;;;;;;5055552;28;20506;-69
2021/03/29 02:31:32;;;;;;;7.50;3.03;;;9.70;85.20;;;;;;5055179;28;20040;-69
2021/03/29 02:34:01;;;;;;;7.95;3.25;;;9.70;85.20;;;;;;5055238;28;20044;-69
2021/03/29 02:36:27;;;;;;;7.40;2.88;;;9.70;85.90;;;;;;5055075;28;20489;-69
2021/03/29 02:38:53;;;;;;;9.07;3.03;;;9.60;86.30;;;;;;5037296;28;20060;-69
2021/03/29 02:41:25;;;;;;;8.45;3.67;;;9.60;85.90;;;;;;5053841;28;20041;-69
2021/03/29 02:43:52;;;;;;;10.38;3.00;;;9.60;85.80;;;;;;5055169;28;20041;-69
2021/03/29 02:46:23;;;;;;;7.22;2.78;;;9.60;85.90;;;;;;5054568;28;20447;-69
2021/03/29 02:48:49;;;;;;;12.57;3.08;;;9.70;85.90;;;;;;5037513;28;20063;-69
2021/03/29 02:51:33;;;;;;;9.25;3.25;;;9.70;85.70;;;;;;5054942;28;20037;-69
2021/03/29 02:54:05;;;;;;;9.50;3.67;;;9.70;86.00;;;;;;5037010;28;20499;-69
2021/03/29 02:56:35;;;;;;;8.93;3.35;;;9.70;85.90;;;;;;5054383;28;20037;-69
2021/03/29 02:59:05;;;;;;;6.70;2.78;;;9.70;85.60;;;;;;5055071;28;20041;-69
2021/03/29 03:01:34;;;;;;;9.65;3.08;;;9.70;85.60;;;;;;5054810;28;20041;-69
2021/03/29 03:04:00;;;;;;;7.90;3.50;;;9.60;85.80;;;;;;5054722;28;20041;-69
2021/03/29 03:06:30;;;;;;;12.30;4.05;;;9.70;85.50;;;;;;5054593;28;20033;-69
2021/03/29 03:09:00;;;;;;;8.27;3.15;;;9.60;86.10;;;;;;5054487;28;20447;-69
2021/03/29 03:11:26;;;;;;;8.23;3.33;;;9.50;86.30;;;;;;5054845;28;20121;-69
2021/03/29 03:13:53;;;;;;;9.82;3.90;;;9.50;86.30;;;;;;5054350;28;20051;-69
2021/03/29 03:16:19;;;;;;;7.28;3.40;;;9.50;86.50;;;;;;5054474;28;20037;-69
2021/03/29 03:18:48;;;;;;;7.47;2.78;;;9.50;86.70;;;;;;5054282;28;20086;-69
2021/03/29 03:21:18;;;;;;;9.60;3.53;;;9.60;86.20;;;;;;5054589;28;20037;-69
2021/03/29 03:23:55;;;;;;;13.55;4.32;;;9.50;86.10;;;;;;5054623;28;20044;-69
2021/03/29 03:26:22;;;;;;;17.13;4.20;;;9.50;86.70;;;;;;5053887;28;20059;-69
2021/03/29 03:28:48;;;;;;;10.88;3.42;;;9.50;86.60;;;;;;5054125;28;20048;-69
2021/03/29 03:31:14;;;;;;;9.00;3.20;;;9.50;86.60;;;;;;5054257;28;20036;-69
2021/03/29 03:33:40;;;;;;;11.38;3.40;;;9.40;86.50;;;;;;5054132;28;20041;-69
2021/03/29 03:36:06;;;;;;;10.00;4.70;;;9.40;86.70;;;;;;5053579;28;20040;-69
2021/03/29 03:38:35;;;;;;;7.90;4.28;;;9.40;86.80;;;;;;5053815;28;20052;-69
2021/03/29 03:41:14;;;;;;;7.65;4.50;;;9.40;86.80;;;;;;5053917;28;20037;-69
2021/03/29 03:43:50;;;;;;;9.93;3.65;;;9.40;86.90;;;;;;5053869;28;20073;-69
2021/03/29 03:46:22;;;;;;;9.63;3.80;;;9.30;87.00;;;;;;5053376;28;20037;-69
2021/03/29 03:48:48;;;;;;;11.15;3.13;;;9.40;87.00;;;;;;5053959;28;20119;-69
2021/03/29 03:51:15;;;;;;;10.10;4.00;;;9.30;87.40;;;;;;5053697;28;20396;-69
2021/03/29 03:53:41;;;;;;;7.85;3.33;;;9.30;87.40;;;;;;5053698;28;20428;-69
2021/03/29 03:56:08;;;;;;;7.82;3.55;;;9.30;87.40;;;;;;5053129;28;20055;-69
2021/03/29 03:58:36;;;;;;;9.35;3.60;;;9.20;87.40;;;;;;5054144;28;20055;-69
2021/03/29 04:01:02;;;;;;;8.70;3.60;;;9.20;87.50;;;;;;5053530;28;20102;-69
2021/03/29 04:03:30;;;;;;;8.27;3.20;;;9.20;87.50;;;;;;5053511;28;20032;-69
2021/03/29 04:05:57;;;;;;;11.70;3.78;;;9.20;87.70;;;;;;5053153;28;20045;-69
2021/03/29 04:08:24;;;;;;;11.07;3.72;;;9.20;87.70;;;;;;5053419;28;20064;-69
2021/03/29 04:10:55;;;;;;;9.55;4.03;;;9.10;87.80;;;;;;5053601;28;20450;-69
2021/03/29 04:13:28;;;;;;;11.10;3.75;;;9.20;88.10;;;;;;5053958;28;20047;-69
2021/03/29 04:15:56;;;;;;;12.43;4.35;;;9.20;88.00;;;;;;5053241;28;20120;-69
2021/03/29 04:18:22;;;;;;;12.02;4.13;;;9.30;87.30;;;;;;5053109;28;20043;-69
2021/03/29 04:20:49;;;;;;;13.55;4.25;;;9.20;87.40;;;;;;5052894;28;20079;-69
2021/03/29 04:23:16;;;;;;;10.25;4.30;;;9.30;87.30;;;;;;5053323;28;20041;-69
2021/03/29 04:25:42;;;;;;;11.60;3.40;;;9.20;87.60;;;;;;5053012;28;20120;-69
2021/03/29 04:28:09;;;;;;;10.80;3.80;;;9.30;87.40;;;;;;5053215;28;20064;-69
2021/03/29 04:30:35;;;;;;;7.95;3.22;;;9.20;87.40;;;;;;5053188;28;20048;-69
2021/03/29 04:33:00;;;;;;;14.65;4.28;;;9.20;87.40;;;;;;5035679;28;20033;-69
2021/03/29 04:35:27;;;;;;;9.80;3.72;;;9.30;87.30;;;;;;5052852;28;20131;-69
2021/03/29 04:37:54;;;;;;;9.30;3.45;;;9.30;86.80;;;;;;5052987;28;20608;-69
2021/03/29 04:40:22;;;;;;;7.82;3.40;;;9.30;86.50;;;;;;5053185;28;20163;-69
2021/03/29 04:42:48;;;;;;;11.68;3.75;;;9.30;87.00;;;;;;5053481;28;20041;-69
2021/03/29 04:45:14;;;;;;;14.57;4.05;;;9.30;87.20;;;;;;5052676;28;20040;-69
2021/03/29 04:47:40;;;;;;;19.67;3.78;;;9.20;87.50;;;;;;5052778;28;20041;-69
2021/03/29 04:50:07;;;;;;;7.97;3.33;;;9.20;87.40;;;;;;5052723;28;20033;-69
2021/03/29 04:52:33;;;;;;;9.48;3.72;;;9.30;87.30;;;;;;5053024;28;20037;-68
2021/03/29 04:55:00;;;;;;;13.52;4.10;;;9.30;86.90;;;;;;5052524;28;20485;-69
2021/03/29 04:57:26;;;;;;;12.25;3.65;;;9.30;86.60;;;;;;5052745;28;20052;-69
2021/03/29 04:59:52;;;;;;;14.63;4.82;;;9.40;86.60;;;;;;5052950;28;20056;-69
2021/03/29 05:02:18;;;;;;;10.68;5.03;;;9.30;86.60;;;;;;5053082;28;20420;-69
2021/03/29 05:04:45;;;;;;;9.27;4.25;;;9.40;86.50;;;;;;5052856;28;20086;-69
2021/03/29 05:07:12;;;;;;;9.27;3.92;;;9.40;86.70;;;;;;5052522;28;20041;-69
2021/03/29 05:09:39;;;;;;;8.23;3.97;;;9.40;86.60;;;;;;5052965;28;20068;-69
2021/03/29 05:12:15;;;;;;;12.15;3.97;;;9.40;86.50;;;;;;5035570;28;20039;-69
2021/03/29 05:14:41;;;;;;;10.93;4.10;;;9.30;86.60;;;;;;5052450;28;20044;-69
2021/03/29 05:17:09;;;;;;;6.90;3.58;;;9.30;87.30;;;;;;5053019;28;20385;-69
2021/03/29 05:19:35;;;;;;;10.15;3.80;;;9.30;87.10;;;;;;5052575;28;20037;-69
2021/03/29 05:22:02;;;;;;;9.82;4.05;;;9.30;86.90;;;;;;5053002;28;20037;-69
2021/03/29 05:24:28;;;;;;;8.38;3.80;;;9.30;87.30;;;;;;5052361;28;20492;-69
2021/03/29 05:26:54;;;;;;;13.32;4.20;;;9.30;87.20;;;;;;5052442;28;20123;-69
2021/03/29 05:29:20;;;;;;;16.30;4.78;;;9.30;87.20;;;;;;5053069;28;20123;-69
2021/03/29 05:31:46;;;;;;;14.50;4.45;;;9.30;87.10;;;;;;5054004;28;20067;-68
2021/03/29 05:34:14;;;;;;;14.00;4.18;;;9.30;87.10;;;;;;5056224;28;20037;-70
2021/03/29 05:36:41;;;;;;;16.25;4.97;;;9.40;87.10;;;;;;5055496;28;20048;-71
2021/03/29 05:39:10;;;;;;;14.00;3.85;;;9.40;86.90;;;;;;5056371;28;20040;-71
2021/03/29 05:41:38;;;;;;;12.75;4.45;;;9.40;87.20;;;;;;5056181;28;20504;-71
2021/03/29 05:44:06;;;;;;;11.85;3.75;;;9.30;87.20;;;;;;5056130;28;20041;-71
2021/03/29 05:46:32;;;;;;;12.90;4.03;;;9.40;87.10;;;;;;5055954;28;20075;-71
2021/03/29 05:49:00;;;;;;;7.30;3.78;;;9.40;87.40;;;;;;5056075;28;20069;-71
2021/03/29 05:51:26;;;;;;;11.98;4.55;;;9.50;87.30;;;;;;5038291;28;20032;-71
2021/03/29 05:53:51;;;;;;;14.60;4.95;;;9.50;87.40;;;;;;5056094;28;20393;-71
2021/03/29 05:56:17;;;;;;;11.02;4.15;;;9.50;87.70;;;;;;5037569;28;20041;-71
2021/03/29 06:01:43;;;;;;;12.93;4.07;;;9.60;87.10;;;;;;5055882;28;20455;-71
2021/03/29 06:04:12;;;;;;;10.80;4.20;;;9.70;86.60;;;;;;5038147;28;20071;-71
2021/03/29 06:06:41;;;;;;;9.45;4.05;;;9.70;86.10;;;;;;5055361;28;20052;-71
2021/03/29 06:09:08;;;;;;;10.23;3.53;;;9.70;86.20;;;;;;5037522;28;20511;-71
2021/03/29 06:11:39;;;;;;;10.20;3.42;;;9.70;86.40;;;;;;5055607;28;20041;-71
2021/03/29 06:14:13;;;;;;;9.95;5.03;;;9.60;86.60;;;;;;5055430;28;20037;-71
2021/03/29 06:17:03;;;;;;;14.85;4.00;;;9.70;86.50;;;;;;5037633;28;20087;-71
2021/03/29 06:19:37;;;;;;;15.23;4.07;;;9.70;86.60;;;;;;5037728;28;20064;-71
2021/03/29 06:22:12;;;;;;;11.88;4.00;;;9.60;86.90;;;;;;5055870;28;20029;-71
2021/03/29 06:24:57;;;;;;;10.57;3.75;;;9.70;86.80;;;;;;5055105;28;20091;-71
2021/03/29 06:27:26;;;;;;;9.90;3.67;;;9.90;86.30;;;;;;5055161;28;20123;-71
2021/03/29 06:30:11;;;;;;;8.13;3.60;;;10.00;85.90;;;;;;5055209;28;20120;-71
2021/03/29 06:32:38;;;;;;;8.32;3.58;;;10.20;85.70;;;;;;5021353;28;20222;-71
2021/03/29 06:35:17;;;;;;;10.38;3.80;;;10.40;85.20;;;;;;5054387;28;20033;-71
2021/03/29 06:37:43;;;;;;;8.35;3.88;;;10.60;83.90;;;;;;5037147;28;20116;-71
2021/03/29 06:40:10;;;;;;;9.05;4.00;;;10.80;83.40;;;;;;5055327;28;20575;-71
2021/03/29 06:42:36;;;;;;;10.52;4.53;;;10.90;83.10;;;;;;5054993;28;20128;-71
2021/03/29 06:45:12;;;;;;;12.52;3.80;;;11.00;82.10;;;;;;5054386;28;20504;-71
2021/03/29 06:47:41;;;;;;;11.82;3.90;;;11.20;82.10;;;;;;5054659;28;20114;-71
2021/03/29 06:50:21;;;;;;;11.35;4.22;;;11.30;81.70;;;;;;5055018;28;20041;-71
2021/03/29 06:52:46;;;;;;;10.93;3.75;;;11.40;81.10;;;;;;5054805;28;20477;-71
2021/03/29 06:55:23;;;;;;;9.68;3.80;;;11.50;81.10;;;;;;5054652;28;20044;-71
2021/03/29 06:58:03;;;;;;;8.88;3.67;;;11.60;80.70;;;;;;5054687;28;20425;-71
2021/03/29 07:00:36;;;;;;;14.52;4.43;;;11.80;80.20;;;;;;5054774;28;20124;-71
2021/03/29 07:03:06;;;;;;;14.15;3.33;;;11.90;79.90;;;;;;5054705;28;20040;-71
2021/03/29 07:05:33;;;;;;;7.63;3.65;;;11.90;79.60;;;;;;5054363;28;20040;-71
2021/03/29 07:08:06;;;;;;;7.03;3.20;;;12.00;79.60;;;;;;5054502;28;20036;-71
2021/03/29 07:10:32;;;;;;;10.63;3.30;;;12.10;79.30;;;;;;5054502;28;20465;-71
2021/03/29 07:13:01;;;;;;;12.82;3.45;;;12.20;79.30;;;;;;5054350;28;20098;-71
2021/03/29 07:15:26;;;;;;;15.57;5.07;;;12.30;79.00;;;;;;5036416;28;20041;-71
2021/03/29 07:17:52;;;;;;;15.00;3.80;;;12.30;78.70;;;;;;5054368;28;20048;-71
2021/03/29 07:20:25;;;;;;;12.63;3.20;;;12.30;78.10;;;;;;5054688;28;20044;-71
2021/03/29 07:22:57;;;;;;;12.93;3.72;;;12.40;78.40;;;;;;5054295;28;20400;-71
2021/03/29 07:25:33;;;;;;;14.05;4.60;;;12.50;78.90;;;;;;5054013;28;20037;-71
2021/03/29 07:28:01;;;;;;;10.20;3.83;;;12.60;78.10;;;;;;5054720;28;20029;-71
2021/03/29 07:30:42;;;;;;;8.93;4.35;;;12.70;78.10;;;;;;5036619;28;20037;-71
2021/03/29 07:33:09;;;;;;;16.65;4.70;;;12.70;77.80;;;;;;5036339;28;20045;-71
2021/03/29 07:35:50;;;;;;;11.15;3.80;;;12.80;77.60;;;;;;5036107;28;20488;-71
2021/03/29 07:38:24;;;;;;;13.73;4.55;;;12.90;77.60;;;;;;5054188;28;20072;-71
2021/03/29 07:40:59;;;;;;;11.18;5.05;;;13.00;77.20;;;;;;5054406;28;20040;-71
2021/03/29 07:43:26;;;;;;;9.70;3.50;;;13.10;77.20;;;;;;5053969;28;20549;-71
2021/03/29 07:46:05;;;;;;;12.00;4.57;;;13.20;76.90;;;;;;5035596;28;20068;-71
2021/03/29 07:48:33;;;;;;;14.80;4.18;;;13.20;76.40;;;;;;5053803;28;20128;-71
2021/03/29 07:51:01;;;;;;;12.18;3.85;;;13.30;76.30;;;;;;5053611;28;20079;-71
2021/03/29 07:53:50;;;;;;;14.98;4.10;;;13.40;76.60;;;;;;5054004;28;20461;-71
2021/03/29 07:56:34;;;;;;;10.15;3.45;;;13.40;76.20;;;;;;5053296;28;20064;-71
2021/03/29 07:59:02;;;;;;;11.02;3.72;;;13.50;76.40;;;;;;5036078;28;20033;-71
2021/03/29 08:01:48;;;;;;;12.88;4.15;;;13.60;76.70;;;;;;5053727;28;20048;-71
2021/03/29 08:04:14;;;;;;;8.43;3.80;;;13.70;76.80;;;;;;5053594;28;20037;-71
2021/03/29 08:06:42;;;;;;;11.52;4.03;;;13.70;76.30;;;;;;5052915;28;20036;-71
2021/03/29 08:09:12;;;;;;;11.25;4.00;;;13.90;76.20;;;;;;5053352;28;20070;-71
2021/03/29 08:11:56;;;;;;;12.32;3.97;;;14.00;76.10;;;;;;5053716;28;20045;-71
2021/03/29 08:14:34;;;;;;;15.00;4.57;;;13.90;75.00;;;;;;5053476;28;20416;-72
2021/03/29 08:17:41;;;;;;;15.98;4.40;;;14.00;75.60;;;;;;5053147;28;20452;-71
2021/03/29 08:20:13;;;;;;;13.27;4.38;;;14.00;75.50;;;;;;5053247;28;20405;-71
2021/03/29 08:22:39;;;;;;;14.57;5.05;;;14.00;74.70;;;;;;5053796;28;20048;-71
2021/03/29 08:25:25;;;;;;;16.80;5.03;;;14.00;74.20;;;;;;5053223;28;20040;-71
2021/03/29 08:27:58;;;;;;;11.63;3.47;;;14.00;75.00;;;;;;5053612;28;20120;-71
2021/03/29 08:30:25;;;;;;;17.90;4.40;;;14.00;75.10;;;;;;5053485;28;20033;-71
2021/03/29 08:33:08;;;;;;;12.85;4.43;;;14.00;75.20;;;;;;5053497;28;20041;-71
2021/03/29 08:35:34;;;;;;;10.80;4.20;;;14.10;74.70;;;;;;5052721;28;20063;-71
2021/03/29 08:38:08;;;;;;;13.43;3.88;;;14.20;75.10;;;;;;5053154;28;20045;-71
2021/03/29 08:40:34;;;;;;;9.98;3.70;;;14.40;75.30;;;;;;5053044;28;20437;-71
2021/03/29 08:43:08;;;;;;;12.38;3.97;;;14.50;75.20;;;;;;5053355;28;20061;-71
2021/03/29 08:45:34;;;;;;;10.90;4.53;;;14.50;75.00;;;;;;5052930;28;20116;-71
2021/03/29 08:48:05;;;;;;;11.40;4.50;;;14.70;74.30;;;;;;5035770;28;20069;-71
2021/03/29 08:50:37;;;;;;;13.93;4.57;;;14.60;73.20;;;;;;5053259;28;20044;-71
2021/03/29 08:53:11;;;;;;;15.88;4.95;;;14.70;74.50;;;;;;5053286;28;20033;-71
2021/03/29 08:55:39;;;;;;;11.40;5.22;;;14.70;73.90;;;;;;5052898;28;20043;-71
2021/03/29 08:58:06;;;;;;;11.40;3.83;;;14.70;73.40;;;;;;5053378;28;20047;-71
2021/03/29 09:00:36;;;;;;;12.90;3.80;;;14.90;73.80;;;;;;5053026;28;20040;-71
2021/03/29 09:03:03;;;;;;;14.73;4.55;;;15.00;74.20;;;;;;5052835;28;20048;-72
2021/03/29 09:05:28;;;;;;;14.40;4.93;;;15.00;74.00;;;;;;5052398;28;20041;-71
2021/03/29 09:07:56;;;;;;;12.20;4.53;;;15.10;73.30;;;;;;5056008;28;20095;-71
2021/03/29 09:10:35;;;;;;;9.38;3.90;;;15.10;73.30;;;;;;5056743;28;20040;-71
2021/03/29 09:13:04;;;;;;;15.57;4.15;;;15.30;73.70;;;;;;5056219;28;20049;-72
2021/03/29 09:15:33;;;;;;;12.23;4.93;;;15.30;73.70;;;;;;5056277;28;20473;-71
2021/03/29 09:18:00;;;;;;;9.43;4.30;;;15.20;73.00;;;;;;5056639;28;20119;-71
2021/03/29 09:20:47;;;;;;;11.68;4.35;;;15.30;73.60;;;;;;5057048;28;20128;-71
2021/03/29 09:23:14;;;;;;;15.75;4.57;;;15.10;72.20;;;;;;5056803;28;20087;-71
2021/03/29 09:25:43;;;;;;;10.70;4.38;;;15.20;72.60;;;;;;5056161;28;20033;-71
2021/03/29 09:28:25;;;;;;;13.85;4.07;;;15.10;73.70;;;;;;5056655;28;20484;-71
2021/03/29 09:30:53;;;;;;;15.65;4.63;;;14.70;73.90;;;;;;5038806;28;20037;-71
2021/03/29 09:33:20;;;;;;;15.98;5.13;;;14.60;75.20;;;;;;5056267;28;20091;-71
2021/03/29 09:35:48;;;;;;;19.13;5.15;;;14.60;76.00;;;;;;5055848;28;20106;-71
2021/03/29 09:38:15;;;;;;;12.65;5.03;;;14.50;74.90;;;;;;5056142;28;20041;-71
2021/03/29 09:40:41;;;;;;;11.90;4.82;;;14.70;76.40;;;;;;5056247;28;20443;-71
2021/03/29 09:43:20;;;;;;;13.60;4.57;;;14.90;76.50;;;;;;5056597;28;20041;-71
2021/03/29 09:45:46;;;;;;;14.85;5.75;;;15.00;76.20;;;;;;5056224;28;20048;-71
2021/03/29 09:48:13;;;;;;;18.27;5.03;;;14.90;75.10;;;;;;5056118;28;20033;-71
2021/03/29 09:50:44;;;;;;;11.85;4.25;;;14.90;74.50;;;;;;5056225;28;20115;-71
2021/03/29 09:53:14;;;;;;;15.30;4.82;;;14.90;75.00;;;;;;5056022;28;20043;-71
2021/03/29 09:55:54;;;;;;;14.82;4.90;;;14.60;75.50;;;;;;5055499;28;20037;-70
2021/03/29 09:58:43;;;;;;;8.05;4.53;;;14.80;75.50;;;;;;5055919;28;20044;-71
2021/03/29 10:01:23;;;;;;;12.85;5.32;;;14.80;74.80;;;;;;5056119;28;20040;-70
2021/03/29 10:03:55;;;;;;;20.98;5.40;;;15.00;76.70;;;;;;5055952;28;20049;-70
2021/03/29 10:06:22;;;;;;;18.65;5.00;;;15.20;76.50;;;;;;5055436;28;20048;-71
2021/03/29 10:09:27;;;;;;;18.15;6.68;;;15.20;75.50;;;;;;5055677;28;20493;-71
2021/03/29 10:11:53;;;;;;;13.05;4.80;;;15.00;75.10;;;;;;5026781;28;20049;-71
2021/03/29 10:14:19;;;;;;;11.43;5.00;;;15.10;76.40;;;;;;5054270;28;20389;-72
2021/03/29 10:16:49;;;;;;;14.85;5.97;;;15.00;74.80;;;;;;5055250;28;20040;-71
2021/03/29 10:19:19;;;;;;;10.15;5.25;;;15.00;74.80;;;;;;5054266;28;20037;-71
2021/03/29 10:22:04;;;;;;;19.13;5.75;;;15.00;75.30;;;;;;5055743;28;20099;-71
2021/03/29 10:24:31;;;;;;;20.83;5.95;;;14.90;75.80;;;;;;5037523;28;20044;-71
2021/03/29 10:27:06;;;;;;;17.58;5.43;;;14.90;76.30;;;;;;5055479;28;21952;-71
2021/03/29 10:29:40;;;;;;;14.05;6.00;;;15.00;77.20;;;;;;5055488;28;20043;-71
2021/03/29 10:32:20;;;;;;;15.65;5.13;;;15.10;76.50;;;;;;5054917;28;20051;-68
2021/03/29 10:34:48;;;;;;;11.60;5.03;;;15.50;76.90;;;;;;5054763;28;20095;-70
2021/03/29 10:37:26;;;;;;;14.27;4.75;;;15.70;74.50;;;;;;5055066;28;20041;-70
2021/03/29 10:39:54;;;;;;;17.58;6.43;;;15.60;74.50;;;;;;5055103;28;20165;-69
2021/03/29 10:42:22;;;;;;;15.38;5.32;;;15.50;74.70;;;;;;5055074;28;20033;-70
2021/03/29 10:44:48;;;;;;;14.45;5.28;;;15.30;74.30;;;;;;5054907;28;20591;-70
2021/03/29 10:47:14;;;;;;;16.70;5.70;;;15.20;74.60;;;;;;5054833;28;20140;-70
2021/03/29 10:49:40;;;;;;;13.40;5.47;;;15.20;75.00;;;;;;5055074;28;20040;-70
2021/03/29 10:52:07;;;;;;;14.13;5.88;;;15.30;75.80;;;;;;5055138;28;20048;-70
2021/03/29 10:54:32;;;;;;;19.42;6.00;;;15.40;74.40;;;;;;5054992;28;20400;-70
2021/03/29 10:56:58;;;;;;;14.45;6.63;;;15.70;74.70;;;;;;5055132;28;20048;-70
2021/03/29 10:59:24;;;;;;;13.90;5.10;;;15.90;74.00;;;;;;5054728;28;20041;-70
2021/03/29 11:01:50;;;;;;;12.55;5.20;;;15.80;73.30;;;;;;5054599;28;20074;-70
2021/03/29 11:04:16;;;;;;;14.82;5.32;;;15.90;73.90;;;;;;5054408;28;20047;-70
2021/03/29 11:06:42;;;;;;;19.80;5.50;;;15.60;73.50;;;;;;5054673;28;20044;-70
2021/03/29 11:09:08;;;;;;;15.52;5.90;;;15.50;74.30;;;;;;5054938;28;20095;-70
2021/03/29 11:11:34;;;;;;;16.67;5.38;;;15.60;74.60;;;;;;5054428;28;20047;-70
2021/03/29 11:14:00;;;;;;;15.75;6.13;;;15.50;74.60;;;;;;5054479;28;20395;-70
2021/03/29 11:16:26;;;;;;;20.75;8.27;;;15.50;74.60;;;;;;5054283;28;20044;-70
2021/03/29 11:18:52;;;;;;;15.90;5.60;;;15.50;74.90;;;;;;5054476;28;20049;-70
2021/03/29 11:21:18;;;;;;;12.98;5.18;;;15.50;75.70;;;;;;5054557;28;20129;-70
2021/03/29 11:23:44;;;;;;;14.40;5.25;;;15.60;74.50;;;;;;5054309;28;20036;-70
2021/03/29 11:26:10;;;;;;;17.90;5.28;;;15.70;74.30;;;;;;5053945;28;20087;-70
2021/03/29 11:28:36;;;;;;;17.17;7.03;;;15.60;74.00;;;;;;5054143;28;20041;-70
2021/03/29 11:31:02;;;;;;;22.52;6.18;;;15.60;73.60;;;;;;5053909;28;20496;-70
2021/03/29 11:33:28;;;;;;;19.02;5.60;;;15.60;73.30;;;;;;5054281;28;20048;-70
2021/03/29 11:35:53;;;;;;;15.07;5.55;;;15.60;73.60;;;;;;5070101;28;20036;-70
2021/03/29 11:38:19;;;;;;;17.83;5.97;;;15.50;74.00;;;;;;5073874;28;20484;-69
2021/03/29 11:40:45;;;;;;;15.73;6.30;;;15.50;74.30;;;;;;5073878;28;20036;-70
2021/03/29 11:43:11;;;;;;;17.88;5.50;;;15.50;74.10;;;;;;5074085;28;20036;-69
2021/03/29 11:45:37;;;;;;;13.50;5.40;;;15.50;74.10;;;;;;5073666;28;20040;-70
2021/03/29 11:48:03;;;;;;;18.17;7.00;;;15.50;75.80;;;;;;5073818;28;20086;-70
2021/03/29 11:50:28;;;;;;;16.88;5.78;;;15.50;76.00;;;;;;5073786;28;20048;-70
2021/03/29 11:52:54;;;;;;;15.48;6.50;;;15.50;74.60;;;;;;5072716;28;20036;-70
2021/03/29 11:55:20;;;;;;;15.27;6.03;;;15.50;75.40;;;;;;5073076;28;20040;-70
2021/03/29 11:57:46;;;;;;;16.00;6.13;;;15.50;75.50;;;;;;5073389;28;20036;-70
2021/03/29 12:00:25;;;;;;;18.23;6.57;;;15.50;74.80;;;;;;5055704;28;20036;-70
2021/03/29 12:03:28;;;;;;;19.83;6.28;;;15.50;76.10;;;;;;5073517;28;20046;-70
2021/03/29 12:05:53;;;;;;;12.13;5.53;;;15.60;75.40;;;;;;5069905;28;20056;-70
2021/03/29 12:14:02;;;;;;;21.77;6.03;;;15.70;76.70;;;;;;5073335;28;20037;-70
2021/03/29 12:16:32;;;;;;;17.92;5.60;;;15.80;76.20;;;;;;5073201;28;20115;-70
2021/03/29 12:18:58;;;;;;;15.55;5.53;;;15.80;75.60;;;;;;5073303;28;20072;-70
2021/03/29 12:21:46;;;;;;;14.23;5.57;;;15.80;74.70;;;;;;5073649;28;20063;-70
2021/03/29 12:24:21;;;;;;;15.20;5.80;;;15.70;74.60;;;;;;5073439;28;20040;-69
2021/03/29 12:26:48;;;;;;;12.07;5.32;;;15.70;75.10;;;;;;5055237;28;20377;-70
2021/03/29 12:29:17;;;;;;;14.07;5.63;;;15.60;74.80;;;;;;5055218;28;20070;-70
2021/03/29 12:31:44;;;;;;;19.08;5.40;;;15.60;75.50;;;;;;5073180;28;20446;-69
2021/03/29 12:34:12;;;;;;;18.92;5.72;;;15.70;75.50;;;;;;5073405;28;20059;-69
2021/03/29 12:36:59;;;;;;;16.20;5.00;;;15.80;75.40;;;;;;5072944;28;20041;-70
2021/03/29 12:39:33;;;;;;;17.20;5.22;;;15.90;73.80;;;;;;5072944;28;20043;-70
2021/03/29 12:41:59;;;;;;;15.65;5.40;;;16.00;74.70;;;;;;5072375;28;20442;-70
2021/03/29 12:44:27;;;;;;;18.27;5.90;;;16.00;73.10;;;;;;5072992;28;20045;-71
2021/03/29 12:46:56;;;;;;;14.65;4.90;;;16.20;73.30;;;;;;5073169;28;20106;-70
2021/03/29 12:49:22;;;;;;;13.98;4.95;;;16.20;72.20;;;;;;5073158;28;20036;-70
2021/03/29 12:51:54;;;;;;;13.63;5.35;;;16.10;71.90;;;;;;5073104;28;20115;-70
2021/03/29 12:54:23;;;;;;;15.88;5.15;;;16.10;73.30;;;;;;5072922;28;20041;-70
2021/03/29 12:56:48;;;;;;;15.30;4.72;;;16.20;73.50;;;;;;5073243;28;20041;-70
2021/03/29 12:59:14;;;;;;;14.93;5.00;;;16.20;72.10;;;;;;5055113;28;20373;-70
2021/03/29 13:01:42;;;;;;;15.00;5.60;;;16.20;72.30;;;;;;5072848;28;20075;-70
2021/03/29 13:04:14;;;;;;;15.20;6.30;;;16.30;71.90;;;;;;5072838;28;20040;-69
2021/03/29 13:06:48;;;;;;;15.98;5.00;;;16.30;72.20;;;;;;5072742;28;20048;-70